Terminal Aerodrome Forecast
Issued by NWS

Home | Current Version | Previous Version | Text Only | Print | Product List | Glossary Off
Versions: 1 2 3 4 5 6 7 8 9 10 11 12 13 14

000
FTUS45 KGGW 221700
TAFSDY
TAF
KSDY 221728Z 2218/2318 20012KT P6SM BKN120
     FM230300 27010KT P6SM VCSH BKN080 WS010/31030KT
     FM230700 28010KT P6SM SCT120 WS010/32030KT
      AMD LTD TO CLD VIS AND WIND=

USA.gov is the U.S. government's official web portal to all federal, state and local government web resources and services.